Time;durP1;ratioP1;P1;durP2;ratioP2;P2;SDS_P1;SDS_P2;PMS_P1;PMS_P2;Temp;Humidity;BMP_temperature;BMP_pressure;BME280_temperature;BME280_humidity;BME280_pressure;Samples;Min_cycle;Max_cycle;Signal;HPM_P1;HPM_P2
2023/11/06 00:00:15;;;;;;;;;;;19.90;61.20;;;;;;1576713;74;805;-59
2023/11/06 00:02:17;;;;;;;;;;;19.90;61.30;;;;;;1579259;74;1586;-57
2023/11/06 00:04:19;;;;;;;;;;;19.90;61.40;;;;;;1582649;74;669;-58
2023/11/06 00:06:21;;;;;;;;;;;19.90;61.30;;;;;;1578092;74;800;-57
2023/11/06 00:08:25;;;;;;;;;;;20.00;61.50;;;;;;1576703;74;718;-60
2023/11/06 00:10:28;;;;;;;;;;;19.90;61.50;;;;;;1584404;73;1664;-59
2023/11/06 00:12:30;;;;;;;;;;;19.90;61.40;;;;;;1580567;74;1921;-59
2023/11/06 00:14:32;;;;;;;;;;;19.80;61.40;;;;;;1591706;74;680;-58
2023/11/06 00:16:35;;;;;;;;;;;19.90;61.40;;;;;;1579668;74;1512;-61
2023/11/06 00:18:37;;;;;;;;;;;19.80;61.30;;;;;;1540708;76;727;-59
2023/11/06 00:20:39;;;;;;;;;;;19.90;61.30;;;;;;1577016;73;759;-61
2023/11/06 00:22:41;;;;;;;;;;;19.90;61.30;;;;;;1575588;74;1144;-60
2023/11/06 00:24:43;;;;;;;;;;;19.90;61.30;;;;;;1583799;74;671;-60
2023/11/06 00:26:45;;;;;;;;;;;19.90;61.40;;;;;;1578523;74;911;-60
2023/11/06 00:28:48;;;;;;;;;;;19.90;61.30;;;;;;1578638;74;780;-60
2023/11/06 00:30:50;;;;;;;;;;;19.90;61.30;;;;;;1585307;74;1911;-59
2023/11/06 00:32:52;;;;;;;;;;;19.90;61.30;;;;;;1585479;74;1093;-61
2023/11/06 00:34:53;;;;;;;;;;;19.80;61.20;;;;;;1580605;74;687;-57
2023/11/06 00:36:55;;;;;;;;;;;19.90;61.40;;;;;;1579792;74;789;-58
2023/11/06 00:38:57;;;;;;;;;;;19.90;61.30;;;;;;1581576;74;781;-60
2023/11/06 00:41:00;;;;;;;;;;;19.80;61.40;;;;;;1583464;74;703;-59
2023/11/06 00:43:02;;;;;;;;;;;19.90;61.40;;;;;;1578100;74;1126;-59
2023/11/06 00:45:04;;;;;;;;;;;19.90;61.40;;;;;;1589026;74;1556;-59
2023/11/06 00:47:06;;;;;;;;;;;19.90;61.40;;;;;;1579103;74;865;-61
2023/11/06 00:49:08;;;;;;;;;;;19.90;61.40;;;;;;1583318;74;758;-59
2023/11/06 00:51:10;;;;;;;;;;;19.90;61.30;;;;;;1579599;74;1907;-59
2023/11/06 00:53:13;;;;;;;;;;;19.80;61.20;;;;;;1544412;75;1175;-61
2023/11/06 00:55:15;;;;;;;;;;;19.90;61.30;;;;;;1546583;76;792;-59
2023/11/06 00:57:17;;;;;;;;;;;19.90;61.20;;;;;;1582672;74;720;-60
2023/11/06 00:59:20;;;;;;;;;;;19.90;61.20;;;;;;1574981;74;1542;-60
2023/11/06 01:01:22;;;;;;;;;;;19.90;61.40;;;;;;1579767;74;1102;-59
2023/11/06 01:03:24;;;;;;;;;;;19.90;61.40;;;;;;1579882;74;763;-60
2023/11/06 01:05:26;;;;;;;;;;;19.90;61.40;;;;;;1580448;74;801;-59
2023/11/06 01:07:28;;;;;;;;;;;19.90;61.30;;;;;;1584407;74;784;-61
2023/11/06 01:09:31;;;;;;;;;;;19.90;61.30;;;;;;1585765;74;803;-57
2023/11/06 01:11:33;;;;;;;;;;;19.90;61.30;;;;;;1576341;74;1930;-59
2023/11/06 01:13:35;;;;;;;;;;;19.90;61.30;;;;;;1578347;74;1476;-57
2023/11/06 01:15:37;;;;;;;;;;;19.80;61.10;;;;;;1554288;75;673;-59
2023/11/06 01:17:38;;;;;;;;;;;19.90;61.30;;;;;;1543802;75;787;-59
2023/11/06 01:19:40;;;;;;;;;;;19.90;61.20;;;;;;1584338;74;731;-59
2023/11/06 01:21:42;;;;;;;;;;;19.90;61.30;;;;;;1576549;73;1151;-57
2023/11/06 01:23:44;;;;;;;;;;;19.90;61.30;;;;;;1571722;74;708;-59
2023/11/06 01:25:46;;;;;;;;;;;19.90;61.20;;;;;;1581427;74;746;-58
2023/11/06 01:27:48;;;;;;;;;;;19.90;61.20;;;;;;1583346;74;1542;-58
2023/11/06 01:29:50;;;;;;;;;;;19.80;61.20;;;;;;1585882;74;777;-59
2023/11/06 01:31:52;;;;;;;;;;;19.90;61.20;;;;;;1585150;74;1945;-58
2023/11/06 01:33:53;;;;;;;;;;;19.80;61.30;;;;;;1588223;74;637;-60
2023/11/06 01:35:55;;;;;;;;;;;19.90;61.40;;;;;;1580316;74;703;-58
2023/11/06 01:37:58;;;;;;;;;;;19.90;61.30;;;;;;1582142;74;731;-58
2023/11/06 01:40:00;;;;;;;;;;;19.80;61.20;;;;;;1585909;74;768;-58
2023/11/06 01:42:02;;;;;;;;;;;19.90;61.20;;;;;;1583882;74;1572;-59
2023/11/06 01:44:04;;;;;;;;;;;19.90;61.20;;;;;;1585239;74;732;-60
2023/11/06 01:46:07;;;;;;;;;;;19.80;61.20;;;;;;1584178;74;897;-56
2023/11/06 01:48:09;;;;;;;;;;;19.80;61.00;;;;;;1571996;74;736;-60
2023/11/06 01:50:11;;;;;;;;;;;19.90;61.10;;;;;;1583977;74;702;-59
2023/11/06 01:52:14;;;;;;;;;;;19.90;61.00;;;;;;1587086;74;1915;-59
2023/11/06 01:54:16;;;;;;;;;;;19.80;61.00;;;;;;1587408;74;725;-59
2023/11/06 01:56:18;;;;;;;;;;;19.90;61.00;;;;;;1578400;74;1328;-60
2023/11/06 01:58:20;;;;;;;;;;;19.90;61.20;;;;;;1578983;74;745;-60
2023/11/06 02:00:23;;;;;;;;;;;19.90;61.10;;;;;;1580989;74;792;-59
2023/11/06 02:02:27;;;;;;;;;;;19.80;60.90;;;;;;1589571;73;1135;-59
2023/11/06 02:04:28;;;;;;;;;;;19.80;60.90;;;;;;1573318;74;712;-59
2023/11/06 02:06:31;;;;;;;;;;;19.90;60.90;;;;;;1577544;74;750;-60
2023/11/06 02:08:33;;;;;;;;;;;19.80;61.00;;;;;;1577097;74;796;-59
2023/11/06 02:10:35;;;;;;;;;;;19.80;60.90;;;;;;1577681;74;1561;-60
2023/11/06 02:12:37;;;;;;;;;;;19.80;61.00;;;;;;1583921;74;2194;-60
2023/11/06 02:14:49;;;;;;;;;;;19.80;61.00;;;;;;1585505;74;741;-60
2023/11/06 02:16:52;;;;;;;;;;;19.80;61.00;;;;;;1577407;74;1838;-59
2023/11/06 02:18:53;;;;;;;;;;;19.80;60.80;;;;;;1578501;74;726;-58
2023/11/06 02:20:57;;;;;;;;;;;19.80;60.90;;;;;;1578440;74;726;-59
2023/11/06 02:23:05;;;;;;;;;;;19.80;60.90;;;;;;1582530;74;1484;-61
2023/11/06 02:25:07;;;;;;;;;;;19.80;60.90;;;;;;1573146;74;743;-61
2023/11/06 02:27:09;;;;;;;;;;;19.80;60.80;;;;;;1581971;74;1039;-60
2023/11/06 02:29:10;;;;;;;;;;;19.80;60.90;;;;;;1587270;74;754;-61
2023/11/06 02:31:12;;;;;;;;;;;19.80;60.90;;;;;;1587376;74;750;-60
2023/11/06 02:33:14;;;;;;;;;;;19.80;60.90;;;;;;1576129;74;1952;-58
2023/11/06 02:35:16;;;;;;;;;;;19.90;61.00;;;;;;1577368;74;740;-59
2023/11/06 02:37:18;;;;;;;;;;;19.80;61.00;;;;;;1581972;74;1453;-58
2023/11/06 02:39:20;;;;;;;;;;;19.80;61.00;;;;;;1581150;74;608;-59
2023/11/06 02:41:22;;;;;;;;;;;19.80;61.00;;;;;;1586952;74;1148;-56
2023/11/06 02:43:24;;;;;;;;;;;19.90;61.00;;;;;;1580084;74;717;-58
2023/11/06 02:45:26;;;;;;;;;;;19.80;61.00;;;;;;1580671;74;677;-58
2023/11/06 02:47:28;;;;;;;;;;;19.80;61.00;;;;;;1582129;74;718;-58
2023/11/06 02:49:30;;;;;;;;;;;19.90;61.20;;;;;;1580861;74;831;-59
2023/11/06 02:51:32;;;;;;;;;;;19.80;61.00;;;;;;1576774;74;1442;-59
2023/11/06 02:53:34;;;;;;;;;;;19.80;61.00;;;;;;1583165;74;1932;-58
2023/11/06 02:55:36;;;;;;;;;;;19.80;61.00;;;;;;1580460;74;801;-59
2023/11/06 02:57:38;;;;;;;;;;;19.80;61.10;;;;;;1578802;74;711;-58
2023/11/06 02:59:40;;;;;;;;;;;19.80;60.90;;;;;;1583509;74;733;-60
2023/11/06 03:01:42;;;;;;;;;;;19.80;61.00;;;;;;1581477;74;1148;-57
2023/11/06 03:03:45;;;;;;;;;;;19.80;61.00;;;;;;1574247;74;683;-59
2023/11/06 03:05:47;;;;;;;;;;;19.80;61.10;;;;;;1575832;74;1301;-60
2023/11/06 03:07:49;;;;;;;;;;;19.80;60.90;;;;;;1580127;74;787;-60
2023/11/06 03:09:50;;;;;;;;;;;19.70;60.90;;;;;;1584559;74;656;-60
2023/11/06 03:11:52;;;;;;;;;;;19.80;60.90;;;;;;1581815;74;1946;-59
2023/11/06 03:13:54;;;;;;;;;;;19.80;60.90;;;;;;1581235;74;793;-59
2023/11/06 03:15:56;;;;;;;;;;;19.80;60.90;;;;;;1581285;74;613;-59
2023/11/06 03:17:58;;;;;;;;;;;19.80;60.90;;;;;;1585784;74;709;-58
2023/11/06 03:20:00;;;;;;;;;;;19.80;60.80;;;;;;1582930;74;1457;-59
2023/11/06 03:22:02;;;;;;;;;;;19.80;60.90;;;;;;1579176;74;1119;-60
2023/11/06 03:24:04;;;;;;;;;;;19.80;60.90;;;;;;1578660;74;831;-60
2023/11/06 03:26:06;;;;;;;;;;;19.80;60.90;;;;;;1578394;74;732;-60
2023/11/06 03:28:08;;;;;;;;;;;19.80;60.90;;;;;;1582643;74;756;-60
2023/11/06 03:30:11;;;;;;;;;;;19.80;60.90;;;;;;1579056;74;664;-58
2023/11/06 03:32:12;;;;;;;;;;;19.80;60.90;;;;;;1587520;74;1913;-60
2023/11/06 03:34:15;;;;;;;;;;;19.80;60.80;;;;;;1581698;74;1653;-57
2023/11/06 03:36:17;;;;;;;;;;;19.80;60.80;;;;;;1578381;74;703;-59
2023/11/06 03:38:19;;;;;;;;;;;19.80;60.90;;;;;;1579863;74;672;-59
2023/11/06 03:40:21;;;;;;;;;;;19.80;60.80;;;;;;1580090;74;751;-60
2023/11/06 03:42:23;;;;;;;;;;;19.80;60.90;;;;;;1577679;74;1144;-58
2023/11/06 03:44:26;;;;;;;;;;;19.80;60.80;;;;;;1580725;74;731;-59
2023/11/06 03:46:28;;;;;;;;;;;19.90;60.80;;;;;;1589889;74;693;-58
2023/11/06 03:48:30;;;;;;;;;;;19.80;60.80;;;;;;1578943;74;1515;-60
2023/11/06 03:50:31;;;;;;;;;;;19.80;60.80;;;;;;1588811;74;704;-57
2023/11/06 03:52:33;;;;;;;;;;;19.80;60.80;;;;;;1583800;74;1940;-60
2023/11/06 03:54:35;;;;;;;;;;;19.80;60.80;;;;;;1582423;74;767;-59
2023/11/06 03:56:37;;;;;;;;;;;19.80;60.80;;;;;;1577975;74;692;-59
2023/11/06 03:58:39;;;;;;;;;;;19.90;60.90;;;;;;1573441;73;696;-58
2023/11/06 04:00:41;;;;;;;;;;;19.80;60.80;;;;;;1576476;74;739;-61
2023/11/06 04:02:44;;;;;;;;;;;19.80;60.70;;;;;;1582329;74;1545;-58
2023/11/06 04:04:51;;;;;;;;;;;19.80;60.70;;;;;;1553932;75;712;-59
2023/11/06 04:06:50;;;;;;;;;;;19.80;60.70;;;;;;1547898;76;1592;-59
2023/11/06 04:08:52;;;;;;;;;;;19.80;60.70;;;;;;1540759;76;799;-58
2023/11/06 04:10:54;;;;;;;;;;;19.80;60.80;;;;;;1551215;75;730;-58
2023/11/06 04:12:57;;;;;;;;;;;19.90;60.70;;;;;;1587486;74;1923;-58
2023/11/06 04:14:59;;;;;;;;;;;19.80;60.70;;;;;;1587621;74;675;-59
2023/11/06 04:17:01;;;;;;;;;;;19.80;60.70;;;;;;1574598;74;1377;-59
2023/11/06 04:19:03;;;;;;;;;;;19.80;60.70;;;;;;1586748;74;717;-56
2023/11/06 04:21:06;;;;;;;;;;;19.80;60.70;;;;;;1577887;74;754;-58
2023/11/06 04:23:09;;;;;;;;;;;19.80;60.80;;;;;;1578598;74;1105;-58
2023/11/06 04:25:11;;;;;;;;;;;19.80;60.70;;;;;;1579473;74;751;-59
2023/11/06 04:27:12;;;;;;;;;;;19.80;60.70;;;;;;1579161;74;686;-61
2023/11/06 04:29:14;;;;;;;;;;;19.80;60.70;;;;;;1575311;74;668;-59
2023/11/06 04:31:16;;;;;;;;;;;19.80;60.60;;;;;;1578842;74;1148;-59
2023/11/06 04:33:18;;;;;;;;;;;19.80;60.70;;;;;;1578332;74;1930;-59
2023/11/06 04:35:20;;;;;;;;;;;19.80;60.60;;;;;;1585469;74;687;-59
2023/11/06 04:37:22;;;;;;;;;;;19.90;60.80;;;;;;1582559;74;735;-59
2023/11/06 04:39:24;;;;;;;;;;;19.80;60.70;;;;;;1576639;74;708;-58
2023/11/06 04:41:25;;;;;;;;;;;19.80;60.60;;;;;;1581421;74;1143;-59
2023/11/06 04:43:28;;;;;;;;;;;19.80;60.60;;;;;;1574628;74;1485;-59
2023/11/06 04:45:29;;;;;;;;;;;19.80;60.60;;;;;;1577993;73;671;-58
2023/11/06 04:47:31;;;;;;;;;;;19.80;60.50;;;;;;1588965;74;656;-60
2023/11/06 04:49:33;;;;;;;;;;;19.80;60.50;;;;;;1579320;74;730;-60
2023/11/06 04:51:35;;;;;;;;;;;19.90;60.60;;;;;;1591076;74;1114;-56
2023/11/06 04:53:38;;;;;;;;;;;19.80;60.50;;;;;;1580592;74;1921;-57
2023/11/06 04:55:40;;;;;;;;;;;19.90;60.60;;;;;;1579358;74;690;-58
2023/11/06 04:57:42;;;;;;;;;;;19.80;60.50;;;;;;1586052;74;1535;-59
2023/11/06 04:59:44;;;;;;;;;;;19.80;60.50;;;;;;1580340;74;775;-59
2023/11/06 05:01:46;;;;;;;;;;;19.80;60.50;;;;;;1585171;74;1127;-61
2023/11/06 05:03:48;;;;;;;;;;;19.80;60.60;;;;;;1588644;74;786;-60
2023/11/06 05:05:50;;;;;;;;;;;19.90;60.60;;;;;;1589220;74;692;-59
2023/11/06 05:07:51;;;;;;;;;;;19.80;61.50;;;;;;1580845;74;747;-59
2023/11/06 05:09:53;;;;;;;;;;;19.90;61.20;;;;;;1575172;74;774;-60
2023/11/06 05:11:55;;;;;;;;;;;19.90;61.00;;;;;;1575752;74;1569;-60
2023/11/06 05:13:58;;;;;;;;;;;19.80;60.80;;;;;;1579559;74;1944;-59
2023/11/06 05:15:59;;;;;;;;;;;19.90;60.80;;;;;;1547961;75;701;-60
2023/11/06 05:18:02;;;;;;;;;;;19.90;60.70;;;;;;1543533;76;683;-59
2023/11/06 05:20:05;;;;;;;;;;;19.80;60.60;;;;;;1584397;73;765;-61
2023/11/06 05:22:07;;;;;;;;;;;19.80;60.70;;;;;;1572665;73;1140;-61
2023/11/06 05:24:09;;;;;;;;;;;19.80;60.70;;;;;;1585559;73;691;-61
2023/11/06 05:26:11;;;;;;;;;;;19.80;60.80;;;;;;1576193;74;1402;-60
2023/11/06 05:28:12;;;;;;;;;;;19.90;60.80;;;;;;1577698;73;702;-61
2023/11/06 05:30:14;;;;;;;;;;;19.80;60.80;;;;;;1577019;73;733;-58
2023/11/06 05:32:16;;;;;;;;;;;19.80;60.70;;;;;;1579725;73;1109;-59
2023/11/06 05:34:18;;;;;;;;;;;19.80;60.70;;;;;;1578126;73;1941;-61
2023/11/06 05:36:20;;;;;;;;;;;19.80;60.70;;;;;;1586474;73;582;-59
2023/11/06 05:38:22;;;;;;;;;;;19.80;60.60;;;;;;1577480;73;682;-60
2023/11/06 05:40:24;;;;;;;;;;;19.80;60.70;;;;;;1579303;73;1455;-60
2023/11/06 05:42:26;;;;;;;;;;;19.80;60.70;;;;;;1583733;73;1143;-59
2023/11/06 05:44:27;;;;;;;;;;;19.80;60.70;;;;;;1586079;73;785;-59
2023/11/06 05:46:29;;;;;;;;;;;19.80;60.70;;;;;;1575927;73;762;-59
2023/11/06 05:48:32;;;;;;;;;;;19.80;60.60;;;;;;1582009;74;787;-60
2023/11/06 05:50:35;;;;;;;;;;;19.80;60.50;;;;;;1578517;73;809;-59
2023/11/06 05:52:39;;;;;;;;;;;19.80;60.50;;;;;;1581576;73;1107;-59
2023/11/06 05:54:40;;;;;;;;;;;19.80;60.50;;;;;;1582627;73;1974;-60
2023/11/06 05:56:42;;;;;;;;;;;19.80;60.50;;;;;;1585420;73;742;-61
2023/11/06 05:58:44;;;;;;;;;;;19.80;60.60;;;;;;1584487;73;768;-60
2023/11/06 06:00:47;;;;;;;;;;;19.80;60.60;;;;;;1575291;73;699;-60
2023/11/06 06:02:48;;;;;;;;;;;19.80;60.60;;;;;;1586121;73;1142;-60
2023/11/06 06:04:50;;;;;;;;;;;19.80;60.30;;;;;;1579191;73;880;-61
2023/11/06 06:06:54;;;;;;;;;;;19.80;60.50;;;;;;1581966;73;680;-61
2023/11/06 06:08:56;;;;;;;;;;;19.80;60.60;;;;;;1588143;73;1484;-60
2023/11/06 06:10:58;;;;;;;;;;;19.80;60.50;;;;;;1544807;75;828;-60
2023/11/06 06:12:59;;;;;;;;;;;19.70;60.50;;;;;;1579823;73;1946;-58
2023/11/06 06:15:01;;;;;;;;;;;19.80;60.40;;;;;;1580930;73;674;-60
2023/11/06 06:17:03;;;;;;;;;;;19.80;60.40;;;;;;1580738;73;654;-60
2023/11/06 06:19:06;;;;;;;;;;;19.80;60.40;;;;;;1595669;73;734;-59
2023/11/06 06:21:08;;;;;;;;;;;19.70;60.40;;;;;;1582225;73;651;-60
2023/11/06 06:23:10;;;;;;;;;;;19.80;60.40;;;;;;1579425;73;1599;-59
2023/11/06 06:25:12;;;;;;;;;;;19.80;60.40;;;;;;1588362;73;662;-59
2023/11/06 06:27:14;;;;;;;;;;;19.80;60.30;;;;;;1538664;75;738;-60
2023/11/06 06:29:16;;;;;;;;;;;19.80;60.30;;;;;;1509752;77;753;-59
2023/11/06 06:31:18;;;;;;;;;;;19.80;60.30;;;;;;1544323;76;1147;-59
2023/11/06 06:33:20;;;;;;;;;;;19.80;60.30;;;;;;1545984;75;1931;-60
2023/11/06 06:35:22;;;;;;;;;;;19.80;60.30;;;;;;1581673;73;709;-59
2023/11/06 06:37:24;;;;;;;;;;;19.70;60.30;;;;;;1585977;73;1593;-59
2023/11/06 06:39:26;;;;;;;;;;;19.80;60.20;;;;;;1577054;73;705;-59
2023/11/06 06:41:27;;;;;;;;;;;19.80;60.20;;;;;;1581465;73;1108;-59
2023/11/06 06:43:29;;;;;;;;;;;19.80;60.20;;;;;;1587933;73;722;-60
2023/11/06 06:45:31;;;;;;;;;;;19.80;60.20;;;;;;1588439;73;676;-59
2023/11/06 06:47:33;;;;;;;;;;;19.80;60.20;;;;;;1587120;73;723;-59
2023/11/06 06:49:40;;;;;;;;;;;19.80;60.20;;;;;;1582743;73;844;-58
2023/11/06 06:51:39;;;;;;;;;;;19.80;60.10;;;;;;1580853;73;1743;-58
2023/11/06 06:53:42;;;;;;;;;;;19.70;60.20;;;;;;1581737;73;1923;-59
2023/11/06 06:55:44;;;;;;;;;;;19.80;60.20;;;;;;1588571;73;801;-59
2023/11/06 06:57:46;;;;;;;;;;;19.70;60.20;;;;;;1585106;73;750;-60
2023/11/06 06:59:48;;;;;;;;;;;19.80;60.10;;;;;;1586068;73;687;-58
2023/11/06 07:01:50;;;;;;;;;;;19.80;60.10;;;;;;1579655;73;1152;-59
2023/11/06 07:03:52;;;;;;;;;;;19.80;60.10;;;;;;1579853;73;717;-60
2023/11/06 07:05:54;;;;;;;;;;;19.80;60.20;;;;;;1583251;73;1659;-61
2023/11/06 07:07:56;;;;;;;;;;;19.80;60.10;;;;;;1548951;75;745;-59
2023/11/06 07:09:57;;;;;;;;;;;19.80;60.10;;;;;;1552678;75;792;-59
2023/11/06 07:12:00;;;;;;;;;;;19.80;60.10;;;;;;1544942;75;1186;-60
2023/11/06 07:14:03;;;;;;;;;;;19.70;60.10;;;;;;1543372;75;1931;-58
2023/11/06 07:16:05;;;;;;;;;;;19.80;60.10;;;;;;1551673;75;749;-60
2023/11/06 07:18:07;;;;;;;;;;;19.70;60.10;;;;;;1517044;76;1520;-60
2023/11/06 07:20:10;;;;;;;;;;;19.80;60.20;;;;;;1527195;76;623;-60
2023/11/06 07:22:12;;;;;;;;;;;19.70;60.20;;;;;;1553584;75;1180;-59
2023/11/06 07:24:14;;;;;;;;;;;19.80;60.20;;;;;;1516925;76;884;-61
2023/11/06 07:26:16;;;;;;;;;;;19.80;60.10;;;;;;1535102;75;713;-60
2023/11/06 07:28:18;;;;;;;;;;;19.70;60.10;;;;;;1542037;75;703;-59
2023/11/06 07:30:20;;;;;;;;;;;19.70;60.00;;;;;;1540772;75;697;-60
2023/11/06 07:32:22;;;;;;;;;;;19.80;60.00;;;;;;1549488;75;1370;-59
2023/11/06 07:34:24;;;;;;;;;;;19.80;60.00;;;;;;1544421;75;1925;-59
2023/11/06 07:36:27;;;;;;;;;;;19.70;59.90;;;;;;1576663;73;606;-59
2023/11/06 07:38:29;;;;;;;;;;;19.80;59.90;;;;;;1580801;73;721;-58
2023/11/06 07:40:31;;;;;;;;;;;19.80;59.90;;;;;;1581038;73;725;-59
2023/11/06 07:42:33;;;;;;;;;;;19.70;59.90;;;;;;1583989;73;1131;-59
2023/11/06 07:44:36;;;;;;;;;;;19.80;59.90;;;;;;1581283;73;841;-61
2023/11/06 07:46:38;;;;;;;;;;;19.70;59.90;;;;;;1584813;73;1515;-60
2023/11/06 07:48:39;;;;;;;;;;;19.70;59.90;;;;;;1585711;73;724;-59
2023/11/06 07:50:41;;;;;;;;;;;19.80;59.90;;;;;;1580550;73;930;-61
2023/11/06 07:52:43;;;;;;;;;;;19.70;59.80;;;;;;1577190;73;1159;-59
2023/11/06 07:54:46;;;;;;;;;;;19.70;59.80;;;;;;1581594;73;1930;-59
2023/11/06 07:56:48;;;;;;;;;;;19.70;59.80;;;;;;1585528;73;784;-59
2023/11/06 07:58:50;;;;;;;;;;;19.80;59.80;;;;;;1577706;73;776;-59
2023/11/06 08:00:52;;;;;;;;;;;19.70;59.80;;;;;;1580488;73;1299;-60
2023/11/06 08:02:54;;;;;;;;;;;19.70;59.80;;;;;;1583591;73;1135;-59
2023/11/06 08:04:56;;;;;;;;;;;19.70;59.80;;;;;;1584848;73;738;-58
2023/11/06 08:06:58;;;;;;;;;;;19.70;59.70;;;;;;1585603;73;776;-60
2023/11/06 08:09:00;;;;;;;;;;;19.70;59.80;;;;;;1589081;73;787;-61
2023/11/06 08:11:02;;;;;;;;;;;19.80;59.70;;;;;;1574909;73;824;-59
2023/11/06 08:13:04;;;;;;;;;;;19.70;59.70;;;;;;1574314;73;1136;-59
2023/11/06 08:15:09;;;;;;;;;;;19.70;59.70;;;;;;1588512;73;1931;-59
2023/11/06 08:17:12;;;;;;;;;;;19.70;59.70;;;;;;1573444;74;936;-59
2023/11/06 08:19:14;;;;;;;;;;;19.70;59.60;;;;;;1581882;73;675;-60
2023/11/06 08:21:16;;;;;;;;;;;19.70;59.60;;;;;;1577441;73;1139;-59
2023/11/06 08:23:18;;;;;;;;;;;19.70;59.50;;;;;;1591713;73;736;-61
2023/11/06 08:25:24;;;;;;;;;;;19.70;59.50;;;;;;1584677;73;723;-60
2023/11/06 08:27:24;;;;;;;;;;;19.70;59.60;;;;;;1579458;73;1665;-59
2023/11/06 08:29:27;;;;;;;;;;;19.80;59.50;;;;;;1583227;73;1552;-59
2023/11/06 08:31:29;;;;;;;;;;;19.70;59.50;;;;;;1580236;73;1163;-58
2023/11/06 08:33:31;;;;;;;;;;;19.80;59.60;;;;;;1584917;73;639;-59
2023/11/06 08:35:33;;;;;;;;;;;19.70;59.50;;;;;;1587718;73;1937;-60
2023/11/06 08:37:35;;;;;;;;;;;19.70;59.50;;;;;;1587647;73;769;-60
2023/11/06 08:39:38;;;;;;;;;;;19.70;59.50;;;;;;1580822;74;714;-60
2023/11/06 08:41:40;;;;;;;;;;;19.70;59.50;;;;;;1573138;73;1838;-59
2023/11/06 08:43:42;;;;;;;;;;;19.70;59.50;;;;;;1583979;73;1343;-61
2023/11/06 08:45:44;;;;;;;;;;;19.70;59.50;;;;;;1576922;73;726;-59
2023/11/06 08:47:46;;;;;;;;;;;19.80;59.50;;;;;;1578689;73;635;-60
2023/11/06 08:49:48;;;;;;;;;;;19.80;59.50;;;;;;1579446;73;772;-60
2023/11/06 08:51:50;;;;;;;;;;;19.70;59.40;;;;;;1583250;73;1156;-58
2023/11/06 08:53:52;;;;;;;;;;;19.70;59.50;;;;;;1580976;73;1919;-59
2023/11/06 08:55:53;;;;;;;;;;;19.70;59.40;;;;;;1585691;73;721;-59
2023/11/06 08:57:55;;;;;;;;;;;19.70;59.40;;;;;;1582496;73;1564;-60
2023/11/06 09:00:01;;;;;;;;;;;19.70;59.40;;;;;;1581503;73;728;-59
2023/11/06 09:02:02;;;;;;;;;;;19.70;59.40;;;;;;1583315;73;1523;-60
2023/11/06 09:04:04;;;;;;;;;;;19.70;59.40;;;;;;1581781;73;726;-59
2023/11/06 09:06:05;;;;;;;;;;;19.70;59.40;;;;;;1578282;73;705;-59
2023/11/06 09:08:07;;;;;;;;;;;19.70;59.40;;;;;;1553507;75;701;-59
2023/11/06 09:10:09;;;;;;;;;;;19.80;59.40;;;;;;1523019;76;714;-59
2023/11/06 09:12:11;;;;;;;;;;;19.80;59.40;;;;;;1525557;76;1506;-60
2023/11/06 09:14:14;;;;;;;;;;;19.80;59.40;;;;;;1528121;75;1934;-59
2023/11/06 09:16:17;;;;;;;;;;;19.80;59.40;;;;;;1542750;75;720;-60
2023/11/06 09:18:19;;;;;;;;;;;19.80;59.40;;;;;;1533655;75;723;-61
2023/11/06 09:20:21;;;;;;;;;;;19.70;59.40;;;;;;1537951;75;793;-60
2023/11/06 09:22:23;;;;;;;;;;;19.80;59.30;;;;;;1527219;76;1122;-59
2023/11/06 09:24:28;;;;;;;;;;;19.70;59.40;;;;;;1547798;75;772;-59
2023/11/06 09:26:29;;;;;;;;;;;19.80;59.30;;;;;;1549627;75;1673;-59
2023/11/06 09:28:30;;;;;;;;;;;19.70;59.40;;;;;;1524210;76;722;-59
2023/11/06 09:30:32;;;;;;;;;;;19.70;59.40;;;;;;1527059;76;727;-59
2023/11/06 09:32:34;;;;;;;;;;;19.80;59.30;;;;;;1506362;77;1139;-59
2023/11/06 09:34:36;;;;;;;;;;;19.80;59.30;;;;;;1525276;76;1943;-59
2023/11/06 09:36:38;;;;;;;;;;;19.80;59.30;;;;;;1540790;75;720;-59
2023/11/06 09:38:40;;;;;;;;;;;19.80;59.30;;;;;;1545558;75;1195;-60
2023/11/06 09:40:42;;;;;;;;;;;19.80;59.30;;;;;;1517105;76;714;-59
2023/11/06 09:42:44;;;;;;;;;;;19.80;59.30;;;;;;1537420;75;1102;-60
2023/11/06 09:44:46;;;;;;;;;;;19.80;59.30;;;;;;1543277;75;709;-60
2023/11/06 09:46:48;;;;;;;;;;;19.80;59.30;;;;;;1536957;76;711;-59
2023/11/06 09:48:50;;;;;;;;;;;19.80;59.30;;;;;;1516264;76;890;-61
2023/11/06 09:50:56;;;;;;;;;;;19.80;59.30;;;;;;1547783;75;737;-59
2023/11/06 09:52:55;;;;;;;;;;;19.80;59.30;;;;;;1541162;75;1686;-59
2023/11/06 09:54:57;;;;;;;;;;;19.80;59.30;;;;;;1542361;76;1924;-59
2023/11/06 09:56:59;;;;;;;;;;;19.80;59.30;;;;;;1546380;75;765;-59
2023/11/06 09:59:02;;;;;;;;;;;19.80;59.30;;;;;;1542113;75;735;-59
2023/11/06 10:01:06;;;;;;;;;;;19.80;59.30;;;;;;1546836;75;715;-60
2023/11/06 10:03:08;;;;;;;;;;;19.80;59.30;;;;;;1545580;75;1155;-59
2023/11/06 10:05:13;;;;;;;;;;;19.80;59.30;;;;;;1535884;75;641;-60
2023/11/06 10:07:33;;;;;;;;;;;19.80;59.30;;;;;;1543225;75;1356;-59
2023/11/06 10:09:36;;;;;;;;;;;19.80;59.30;;;;;;1544448;75;748;-59
2023/11/06 10:11:38;;;;;;;;;;;19.80;59.30;;;;;;1539375;75;1093;-59
2023/11/06 10:13:54;;;;;;;;;;;19.80;59.30;;;;;;1544678;75;730;-60
2023/11/06 10:15:56;;;;;;;;;;;19.80;59.30;;;;;;1543537;75;1923;-58
2023/11/06 10:18:05;;;;;;;;;;;19.80;59.30;;;;;;1583232;73;713;-59
2023/11/06 10:20:17;;;;;;;;;;;19.80;59.30;;;;;;1568788;73;1313;-59
2023/11/06 10:22:19;;;;;;;;;;;19.80;59.30;;;;;;1580973;73;1617;-60
2023/11/06 10:24:21;;;;;;;;;;;19.80;59.30;;;;;;1581331;73;950;-59
2023/11/06 10:26:26;;;;;;;;;;;19.80;59.30;;;;;;1591902;73;654;-59
2023/11/06 10:28:26;;;;;;;;;;;19.80;59.30;;;;;;1552956;74;1629;-59
2023/11/06 10:30:29;;;;;;;;;;;19.80;59.30;;;;;;1546126;75;792;-60
2023/11/06 10:32:31;;;;;;;;;;;19.80;59.30;;;;;;1539270;75;1142;-59
2023/11/06 10:34:37;;;;;;;;;;;19.80;59.30;;;;;;1508975;77;1958;-59
2023/11/06 10:36:36;;;;;;;;;;;19.80;59.30;;;;;;1579828;73;1677;-61
2023/11/06 10:38:40;;;;;;;;;;;19.80;59.30;;;;;;1588544;73;721;-59
2023/11/06 10:40:43;;;;;;;;;;;19.80;59.30;;;;;;1586263;73;1127;-59
2023/11/06 10:42:46;;;;;;;;;;;19.80;59.30;;;;;;1581683;73;1099;-59
2023/11/06 10:44:58;;;;;;;;;;;19.80;59.20;;;;;;1584021;73;1558;-59
2023/11/06 10:47:02;;;;;;;;;;;19.60;59.20;;;;;;1545702;75;690;-59
2023/11/06 10:49:05;;;;;;;;;;;19.80;59.20;;;;;;1581625;73;1280;-60
2023/11/06 10:51:07;;;;;;;;;;;19.90;59.30;;;;;;1584629;73;1817;-59
2023/11/06 10:53:09;;;;;;;;;;;19.80;59.20;;;;;;1574883;73;1116;-60
2023/11/06 10:55:12;;;;;;;;;;;19.90;59.30;;;;;;1573858;73;1920;-60
2023/11/06 10:57:16;;;;;;;;;;;19.90;59.40;;;;;;1590267;73;791;-59
2023/11/06 10:59:18;;;;;;;;;;;19.80;59.30;;;;;;1581574;73;741;-59
2023/11/06 11:01:20;;;;;;;;;;;19.90;59.40;;;;;;1581880;73;1176;-60
2023/11/06 11:03:22;;;;;;;;;;;19.80;59.30;;;;;;1579269;73;1548;-61
2023/11/06 11:05:24;;;;;;;;;;;19.80;59.30;;;;;;1583675;74;712;-60
2023/11/06 11:07:26;;;;;;;;;;;19.90;59.40;;;;;;1554663;74;788;-59
2023/11/06 11:09:29;;;;;;;;;;;19.80;59.30;;;;;;1541341;75;655;-59
2023/11/06 11:11:31;;;;;;;;;;;19.80;59.20;;;;;;1550792;75;1195;-60
2023/11/06 11:13:33;;;;;;;;;;;19.80;59.30;;;;;;1581916;73;741;-59
2023/11/06 11:15:36;;;;;;;;;;;19.90;59.30;;;;;;1586979;73;1928;-60
2023/11/06 11:17:37;;;;;;;;;;;19.80;59.20;;;;;;1580812;73;1322;-61
2023/11/06 11:19:41;;;;;;;;;;;19.80;59.30;;;;;;1577500;73;702;-60
2023/11/06 11:22:03;;;;;;;;;;;19.90;59.30;;;;;;1577286;73;1149;-59
2023/11/06 11:24:05;;;;;;;;;;;19.90;59.30;;;;;;1581764;73;693;-59
2023/11/06 11:26:09;;;;;;;;;;;19.80;59.20;;;;;;1580005;73;853;-59
2023/11/06 11:28:14;;;;;;;;;;;19.90;59.30;;;;;;1575117;73;680;-60
2023/11/06 11:30:16;;;;;;;;;;;19.90;59.30;;;;;;1551089;75;739;-60
2023/11/06 11:32:20;;;;;;;;;;;19.90;59.30;;;;;;1548659;76;1577;-61
2023/11/06 11:34:31;;;;;;;;;;;19.80;59.20;;;;;;1542564;75;766;-59
2023/11/06 11:36:35;;;;;;;;;;;19.90;59.30;;;;;;1578773;73;1938;-59
2023/11/06 11:38:36;;;;;;;;;;;19.90;59.30;;;;;;1578721;73;799;-58
2023/11/06 11:40:43;;;;;;;;;;;19.90;59.20;;;;;;1585992;73;764;-60
2023/11/06 11:42:45;;;;;;;;;;;19.90;59.30;;;;;;1580034;73;1139;-59
2023/11/06 11:44:52;;;;;;;;;;;19.90;59.30;;;;;;1585111;73;805;-60
2023/11/06 11:46:55;;;;;;;;;;;19.90;59.30;;;;;;1559663;73;1683;-59
2023/11/06 11:48:57;;;;;;;;;;;19.90;59.20;;;;;;1582546;73;762;-59
2023/11/06 11:50:58;;;;;;;;;;;19.90;59.30;;;;;;1581156;73;729;-59
2023/11/06 11:53:00;;;;;;;;;;;19.90;59.30;;;;;;1570599;73;1146;-60
2023/11/06 11:55:20;;;;;;;;;;;19.90;59.20;;;;;;1584893;73;1950;-58
2023/11/06 11:57:22;;;;;;;;;;;19.90;57.90;;;;;;1574821;73;797;-58
2023/11/06 11:59:25;;;;;;;;;;;19.80;59.00;;;;;;1581189;73;1559;-59
2023/11/06 12:01:27;;;;;;;;;;;19.90;59.10;;;;;;1575244;73;1152;-60
2023/11/06 12:03:30;;;;;;;;;;;19.90;59.00;;;;;;1579663;73;735;-59
2023/11/06 12:05:32;;;;;;;;;;;19.90;59.00;;;;;;1577264;73;683;-59
2023/11/06 12:07:35;;;;;;;;;;;19.80;59.00;;;;;;1576305;73;800;-60
2023/11/06 12:09:47;;;;;;;;;;;19.90;59.00;;;;;;1578056;73;1858;-59